createdAt,value
2022-10-31T00:01:33.330Z,14.19
2022-10-31T00:04:05.858Z,14.18
2022-10-31T00:06:37.843Z,14.16
2022-10-31T00:09:11.558Z,14.15
2022-10-31T00:11:43.969Z,14.14
2022-10-31T00:14:15.996Z,14.14
2022-10-31T00:16:48.619Z,14.12
2022-10-31T00:19:21.060Z,14.12
2022-10-31T00:21:55.251Z,14.13
2022-10-31T00:24:27.328Z,14.13
2022-10-31T00:26:59.613Z,14.13
2022-10-31T00:29:31.656Z,14.14
2022-10-31T00:32:03.967Z,14.06
2022-10-31T00:34:36.252Z,14.15
2022-10-31T00:37:08.529Z,14.16
2022-10-31T00:39:41.272Z,14.12
2022-10-31T00:42:13.372Z,14.12
2022-10-31T00:44:47.801Z,14.13
2022-10-31T00:47:20.155Z,14.05
2022-10-31T00:49:53.005Z,14.12
2022-10-31T00:52:26.677Z,14.11
2022-10-31T00:54:58.753Z,14.11
2022-10-31T00:57:30.948Z,14.09
2022-10-31T01:00:02.957Z,13.99
2022-10-31T01:02:35.522Z,14.06
2022-10-31T01:05:08.679Z,14.05
2022-10-31T01:07:42.458Z,14.00
2022-10-31T01:10:15.242Z,14.01
2022-10-31T01:12:52.123Z,14.01
2022-10-31T01:15:25.451Z,14.00
2022-10-31T01:17:58.296Z,13.99
2022-10-31T01:20:30.967Z,13.97
2022-10-31T01:23:02.948Z,13.96
2022-10-31T01:25:34.954Z,13.95
2022-10-31T01:28:07.119Z,13.94
2022-10-31T01:30:39.413Z,13.91
2022-10-31T01:33:11.365Z,13.91
2022-10-31T01:35:43.414Z,13.88
2022-10-31T01:38:15.315Z,13.85
2022-10-31T01:40:47.349Z,13.84
2022-10-31T01:45:57.080Z,13.79
2022-10-31T01:48:32.361Z,13.77
2022-10-31T01:51:06.034Z,13.62
2022-10-31T01:53:39.107Z,13.74
2022-10-31T01:56:12.887Z,13.73
2022-10-31T01:58:47.185Z,13.70
2022-10-31T02:01:21.930Z,13.68
2022-10-31T02:03:57.192Z,13.66
2022-10-31T02:06:39.877Z,13.66
2022-10-31T02:09:12.880Z,13.64
2022-10-31T02:11:46.345Z,13.63
2022-10-31T02:14:18.666Z,13.61
2022-10-31T02:16:53.580Z,13.59
2022-10-31T02:19:28.280Z,13.57
2022-10-31T02:22:11.685Z,13.55
2022-10-31T02:24:59.416Z,13.52
2022-10-31T02:27:58.152Z,13.50
2022-10-31T02:30:38.116Z,13.49
2022-10-31T02:33:24.744Z,13.50
2022-10-31T02:36:06.749Z,13.50
2022-10-31T02:38:52.335Z,13.46
2022-10-31T02:41:42.919Z,13.44
2022-10-31T02:44:25.092Z,13.41
2022-10-31T02:47:01.974Z,13.39
2022-10-31T02:49:40.738Z,13.35
2022-10-31T02:52:23.910Z,13.36
2022-10-31T02:54:57.340Z,13.27
2022-10-31T02:57:34.388Z,13.34
2022-10-31T03:00:10.350Z,13.34
2022-10-31T03:03:06.532Z,13.33
2022-10-31T03:05:47.029Z,13.32
2022-10-31T03:08:25.624Z,13.31
2022-10-31T03:11:00.417Z,13.29
2022-10-31T03:13:38.288Z,13.28
2022-10-31T03:16:15.900Z,13.28
2022-10-31T03:18:56.050Z,13.27
2022-10-31T03:21:34.209Z,13.26
2022-10-31T03:24:10.974Z,13.25
2022-10-31T03:26:46.901Z,13.23
2022-10-31T03:29:23.683Z,13.14
2022-10-31T03:32:00.423Z,13.23
2022-10-31T03:34:34.067Z,13.21
2022-10-31T03:37:09.820Z,13.21
2022-10-31T03:39:45.394Z,13.19
2022-10-31T03:42:21.331Z,13.19
2022-10-31T03:44:59.898Z,13.20
2022-10-31T03:47:33.770Z,13.13
2022-10-31T03:50:08.415Z,13.21
2022-10-31T03:52:48.186Z,13.23
2022-10-31T03:55:27.811Z,13.22
2022-10-31T03:58:06.638Z,13.20
2022-10-31T04:00:44.553Z,13.21
2022-10-31T04:03:21.635Z,13.20
2022-10-31T04:05:57.189Z,13.20
2022-10-31T04:08:33.515Z,13.19
2022-10-31T04:11:08.874Z,13.17
2022-10-31T04:13:48.141Z,13.15
2022-10-31T04:16:21.318Z,13.13
2022-10-31T04:18:53.762Z,13.12
2022-10-31T04:21:30.843Z,13.10
2022-10-31T04:24:03.112Z,13.07
2022-10-31T04:26:35.939Z,13.05
2022-10-31T04:29:08.647Z,13.02
2022-10-31T04:31:40.681Z,13.01
2022-10-31T04:34:12.704Z,12.98
2022-10-31T04:36:45.522Z,12.97
2022-10-31T04:39:24.195Z,12.95
2022-10-31T04:42:21.372Z,12.93
2022-10-31T04:44:53.311Z,12.92
2022-10-31T04:47:25.362Z,12.92
2022-10-31T04:49:59.083Z,12.93
2022-10-31T04:52:31.939Z,12.86
2022-10-31T04:55:04.125Z,12.93
2022-10-31T04:57:55.093Z,12.86
2022-10-31T05:00:28.505Z,12.93
2022-10-31T05:03:02.305Z,12.92
2022-10-31T05:05:34.882Z,12.93
2022-10-31T05:08:09.177Z,12.94
2022-10-31T05:10:42.133Z,12.93
2022-10-31T05:13:15.786Z,12.92
2022-10-31T05:16:07.241Z,12.92
2022-10-31T05:18:58.452Z,12.91
2022-10-31T05:21:51.732Z,12.91
2022-10-31T05:24:29.148Z,12.91
2022-10-31T05:27:01.669Z,12.92
2022-10-31T05:29:34.469Z,12.92
2022-10-31T05:32:06.728Z,12.92
2022-10-31T05:35:01.601Z,12.91
2022-10-31T05:37:53.593Z,12.90
2022-10-31T05:40:27.698Z,12.89
2022-10-31T05:43:00.832Z,12.90
2022-10-31T05:45:33.270Z,12.90
2022-10-31T05:48:08.828Z,12.91
2022-10-31T05:50:59.614Z,12.91
2022-10-31T05:53:32.238Z,12.92
2022-10-31T05:56:04.342Z,12.94
2022-10-31T05:58:36.672Z,12.94
2022-10-31T06:01:11.544Z,12.95
2022-10-31T06:03:43.839Z,12.96
2022-10-31T06:06:15.980Z,12.97
2022-10-31T06:08:48.252Z,12.97
2022-10-31T06:11:24.670Z,12.97
2022-10-31T06:14:07.577Z,12.98
2022-10-31T06:16:57.931Z,12.98
2022-10-31T06:19:52.851Z,12.93
2022-10-31T06:22:26.870Z,13.00
2022-10-31T06:25:00.646Z,13.00
2022-10-31T06:27:39.933Z,13.01
2022-10-31T06:30:20.542Z,13.02
2022-10-31T06:32:54.034Z,13.01
2022-10-31T06:35:26.426Z,13.01
2022-10-31T06:37:59.220Z,13.01
2022-10-31T06:40:55.515Z,13.01
2022-10-31T06:43:34.446Z,13.01
2022-10-31T06:46:32.753Z,13.02
2022-10-31T06:49:27.706Z,13.06
2022-10-31T06:52:00.889Z,13.04
2022-10-31T06:54:33.259Z,13.06
2022-10-31T06:57:05.458Z,13.07
2022-10-31T06:59:37.714Z,13.07
2022-10-31T07:02:20.377Z,13.10
2022-10-31T07:04:53.998Z,13.13
2022-10-31T07:07:26.027Z,13.16
2022-10-31T07:09:58.305Z,13.19
2022-10-31T07:12:47.424Z,13.21
2022-10-31T07:15:19.740Z,13.24
2022-10-31T07:17:51.868Z,13.27
2022-10-31T07:20:23.939Z,13.31
2022-10-31T07:22:56.415Z,13.36
2022-10-31T07:25:29.459Z,13.40
2022-10-31T07:28:15.194Z,13.39
2022-10-31T07:30:54.961Z,13.52
2022-10-31T07:33:28.480Z,13.58
2022-10-31T07:36:19.097Z,13.63
2022-10-31T07:38:51.687Z,13.67
2022-10-31T07:41:24.537Z,13.73
2022-10-31T07:43:56.693Z,13.79
2022-10-31T07:46:47.274Z,13.85
2022-10-31T07:49:28.550Z,13.90
2022-10-31T07:52:19.553Z,13.95
2022-10-31T07:55:11.410Z,14.01
2022-10-31T07:57:44.075Z,14.04
2022-10-31T08:00:17.905Z,14.08
2022-10-31T08:02:49.950Z,14.13
2022-10-31T08:05:47.088Z,14.17
2022-10-31T08:08:40.060Z,14.22
2022-10-31T08:11:13.102Z,14.26
2022-10-31T08:13:45.450Z,14.27
2022-10-31T08:16:19.528Z,14.32
2022-10-31T08:19:02.156Z,14.36
2022-10-31T08:21:35.369Z,14.38
2022-10-31T08:24:08.374Z,14.48
2022-10-31T08:26:40.456Z,14.53
2022-10-31T08:29:15.539Z,14.60
2022-10-31T08:31:48.275Z,14.65
2022-10-31T08:34:39.172Z,14.72
2022-10-31T08:37:29.961Z,14.75
2022-10-31T08:40:02.279Z,14.83
2022-10-31T08:42:38.588Z,14.93
2022-10-31T08:45:12.772Z,15.03
2022-10-31T08:47:44.907Z,15.12
2022-10-31T08:50:18.787Z,15.20
2022-10-31T08:53:04.702Z,15.25
2022-10-31T08:55:39.844Z,15.23
2022-10-31T08:58:27.370Z,15.30
2022-10-31T09:01:04.189Z,15.35
2022-10-31T09:03:36.946Z,15.38
2022-10-31T09:06:10.208Z,15.51
2022-10-31T09:08:43.073Z,15.52
2022-10-31T09:11:15.169Z,15.53
2022-10-31T09:14:05.992Z,15.69
2022-10-31T09:16:56.563Z,15.81
2022-10-31T09:19:32.743Z,15.85
2022-10-31T09:22:04.839Z,15.92
2022-10-31T09:24:38.045Z,15.99
2022-10-31T09:27:10.382Z,15.93
2022-10-31T09:29:46.268Z,16.05
2022-10-31T09:32:18.628Z,16.01
2022-10-31T09:34:51.959Z,16.06
2022-10-31T09:37:25.268Z,16.18
2022-10-31T09:39:57.860Z,16.22
2022-10-31T09:42:54.025Z,16.23
2022-10-31T09:45:38.081Z,16.42
2022-10-31T09:48:29.849Z,16.51
2022-10-31T09:51:22.841Z,16.59
2022-10-31T09:54:13.091Z,16.67
2022-10-31T09:56:46.587Z,16.72
2022-10-31T09:59:26.486Z,16.75
2022-10-31T10:02:02.578Z,16.87
2022-10-31T10:04:40.459Z,16.95
2022-10-31T10:07:25.152Z,16.96
2022-10-31T10:10:20.350Z,16.99
2022-10-31T10:13:32.977Z,17.07
2022-10-31T10:16:24.943Z,17.19
2022-10-31T10:19:13.524Z,17.27
2022-10-31T10:21:52.940Z,17.40
2022-10-31T10:24:37.724Z,17.47
2022-10-31T10:27:23.429Z,17.43
2022-10-31T10:30:03.594Z,17.62
2022-10-31T10:32:43.898Z,17.66
2022-10-31T10:35:24.449Z,17.74
2022-10-31T10:38:04.052Z,17.80
2022-10-31T10:40:36.729Z,17.89
2022-10-31T10:43:21.423Z,17.92
2022-10-31T10:46:27.306Z,18.01
2022-10-31T10:49:02.720Z,18.11
2022-10-31T10:52:13.188Z,18.17
2022-10-31T10:54:44.838Z,18.26
2022-10-31T10:57:30.988Z,18.38
2022-10-31T11:00:05.896Z,18.34
2022-10-31T11:02:36.327Z,18.48
2022-10-31T11:05:21.654Z,18.55
2022-10-31T11:08:13.071Z,18.62
2022-10-31T11:11:05.992Z,18.77
2022-10-31T11:13:42.919Z,18.79
2022-10-31T11:16:17.250Z,18.84
2022-10-31T11:18:50.237Z,18.88
2022-10-31T11:25:32.977Z,18.97
2022-10-31T11:28:07.820Z,19.01
2022-10-31T11:30:47.658Z,19.10
2022-10-31T11:33:26.051Z,19.22
2022-10-31T11:35:59.530Z,19.25
2022-10-31T11:38:36.607Z,19.34
2022-10-31T11:41:15.508Z,19.38
2022-10-31T11:43:54.242Z,19.40
2022-10-31T11:46:32.775Z,19.43
2022-10-31T11:49:06.656Z,19.47
2022-10-31T11:51:39.412Z,19.47
2022-10-31T11:54:27.914Z,19.49
2022-10-31T11:57:00.081Z,19.51
2022-10-31T11:59:33.735Z,19.57
2022-10-31T12:02:20.984Z,19.51
2022-10-31T12:05:00.371Z,19.53
2022-10-31T12:07:32.852Z,19.63
2022-10-31T12:10:12.007Z,19.64
2022-10-31T12:13:02.947Z,19.67
2022-10-31T12:15:37.662Z,19.70
2022-10-31T12:18:38.482Z,19.52
2022-10-31T12:21:25.915Z,19.65
2022-10-31T12:24:16.019Z,19.58
2022-10-31T12:27:01.690Z,19.54
2022-10-31T12:29:51.769Z,19.64
2022-10-31T12:32:36.436Z,19.74
2022-10-31T12:35:26.002Z,19.72
2022-10-31T12:38:41.274Z,19.67
2022-10-31T12:41:27.215Z,19.68
2022-10-31T12:44:07.770Z,19.71
2022-10-31T12:46:58.108Z,19.60
2022-10-31T12:49:45.010Z,19.66
2022-10-31T12:52:39.845Z,19.53
2022-10-31T12:55:28.302Z,19.71
2022-10-31T12:58:06.470Z,19.68
2022-10-31T13:00:42.870Z,19.69
2022-10-31T13:03:25.303Z,19.73
2022-10-31T13:06:00.310Z,19.75
2022-10-31T13:08:36.618Z,19.76
2022-10-31T13:11:12.933Z,19.73
2022-10-31T13:13:49.393Z,19.71
2022-10-31T13:16:25.852Z,19.73
2022-10-31T13:19:01.450Z,19.75
2022-10-31T13:21:38.500Z,19.69
2022-10-31T13:24:16.092Z,19.57
2022-10-31T13:26:52.277Z,19.68
2022-10-31T13:29:32.742Z,19.69
2022-10-31T13:32:08.592Z,19.66
2022-10-31T13:34:42.587Z,19.68
2022-10-31T13:37:23.526Z,19.67
2022-10-31T13:40:12.779Z,19.69
2022-10-31T13:42:56.289Z,19.67
2022-10-31T13:45:29.504Z,19.68
2022-10-31T13:48:19.684Z,19.71
2022-10-31T13:51:03.129Z,19.73
2022-10-31T13:53:47.611Z,19.73
2022-10-31T13:56:23.384Z,19.71
2022-10-31T13:59:21.535Z,19.70
2022-10-31T14:01:57.653Z,19.73
2022-10-31T14:04:35.412Z,19.72
2022-10-31T14:07:12.527Z,19.84
2022-10-31T14:09:57.557Z,19.86
2022-10-31T14:12:35.976Z,19.88
2022-10-31T14:15:18.401Z,19.91
2022-10-31T14:17:53.884Z,19.93
2022-10-31T14:20:41.973Z,19.88
2022-10-31T14:23:43.688Z,19.82
2022-10-31T14:26:37.899Z,19.82
2022-10-31T14:29:28.411Z,19.78
2022-10-31T14:32:19.333Z,19.67
2022-10-31T14:34:57.894Z,19.62
2022-10-31T14:38:02.461Z,19.54
2022-10-31T14:40:45.443Z,19.44
2022-10-31T14:43:43.903Z,19.33
2022-10-31T14:46:27.406Z,19.21
2022-10-31T14:49:20.286Z,19.16
2022-10-31T14:51:54.155Z,19.05
2022-10-31T14:54:30.989Z,19.00
2022-10-31T14:57:09.627Z,18.94
2022-10-31T14:59:50.032Z,18.88
2022-10-31T15:02:26.767Z,18.80
2022-10-31T15:05:03.279Z,18.73
2022-10-31T15:07:37.604Z,18.65
2022-10-31T15:10:24.437Z,18.52
2022-10-31T15:12:56.833Z,18.49
2022-10-31T15:15:29.654Z,18.44
2022-10-31T15:18:03.418Z,18.40
2022-10-31T15:20:44.715Z,18.34
2022-10-31T15:23:25.527Z,18.17
2022-10-31T15:26:05.035Z,18.19
2022-10-31T15:28:37.189Z,18.12
2022-10-31T15:31:17.982Z,18.07
2022-10-31T15:33:51.942Z,17.93
2022-10-31T15:36:29.070Z,17.93
2022-10-31T15:39:02.748Z,17.85
2022-10-31T15:41:38.712Z,17.86
2022-10-31T15:44:21.664Z,17.68
2022-10-31T15:46:59.813Z,17.70
2022-10-31T15:49:38.896Z,17.65
2022-10-31T15:52:15.661Z,17.59
2022-10-31T15:54:53.704Z,17.54
2022-10-31T15:57:27.745Z,17.52
2022-10-31T16:00:00.593Z,17.51
2022-10-31T16:02:33.377Z,17.48
2022-10-31T16:05:18.304Z,17.43
2022-10-31T16:07:53.975Z,17.40
2022-10-31T16:10:29.097Z,17.33
2022-10-31T16:13:04.596Z,17.27
2022-10-31T16:15:37.853Z,17.24
2022-10-31T16:18:15.978Z,17.20
2022-10-31T16:20:56.329Z,17.16
2022-10-31T16:23:30.380Z,17.11
2022-10-31T16:26:07.732Z,17.05
2022-10-31T16:28:40.898Z,17.01
2022-10-31T16:31:19.958Z,16.97
2022-10-31T16:34:03.187Z,16.87
2022-10-31T16:36:39.693Z,16.79
2022-10-31T16:39:12.005Z,16.74
2022-10-31T16:41:46.949Z,16.77
2022-10-31T16:44:27.757Z,16.76
2022-10-31T16:47:15.426Z,16.72
2022-10-31T16:49:51.260Z,16.67
2022-10-31T16:52:22.001Z,16.61
2022-10-31T16:54:55.267Z,16.52
2022-10-31T16:57:32.062Z,16.55
2022-10-31T17:00:05.467Z,16.52
2022-10-31T17:02:37.845Z,16.49
2022-10-31T17:05:13.620Z,16.48
2022-10-31T17:07:46.466Z,16.45
2022-10-31T17:10:20.315Z,16.31
2022-10-31T17:12:53.534Z,16.39
2022-10-31T17:15:27.757Z,16.38
2022-10-31T17:18:00.258Z,16.35
2022-10-31T17:20:33.825Z,16.23
2022-10-31T17:23:06.113Z,16.28
2022-10-31T17:25:39.111Z,16.27
2022-10-31T17:28:15.003Z,16.25
2022-10-31T17:30:47.024Z,16.19
2022-10-31T17:33:19.855Z,16.18
2022-10-31T17:35:52.053Z,16.15
2022-10-31T17:38:24.703Z,16.11
2022-10-31T17:40:57.184Z,16.10
2022-10-31T17:43:29.783Z,16.07
2022-10-31T17:46:03.631Z,16.03
2022-10-31T17:48:37.172Z,16.00
2022-10-31T17:51:10.341Z,15.98
2022-10-31T17:53:42.591Z,15.95
2022-10-31T17:56:15.110Z,15.92
2022-10-31T17:58:47.490Z,15.88
2022-10-31T18:01:20.712Z,15.83
2022-10-31T18:03:53.249Z,15.76
2022-10-31T18:06:25.527Z,15.74
2022-10-31T18:08:58.569Z,15.70
2022-10-31T18:11:31.188Z,15.67
2022-10-31T18:14:03.449Z,15.63
2022-10-31T18:19:08.771Z,15.60
2022-10-31T18:21:41.432Z,15.58
2022-10-31T18:24:14.105Z,15.56
2022-10-31T18:26:46.643Z,15.57
2022-10-31T18:29:18.789Z,15.51
2022-10-31T18:31:52.980Z,15.56
2022-10-31T18:34:25.448Z,15.56
2022-10-31T18:36:57.900Z,15.53
2022-10-31T18:39:30.601Z,15.49
2022-10-31T18:42:03.389Z,15.48
2022-10-31T18:44:35.476Z,15.45
2022-10-31T18:47:09.640Z,15.43
2022-10-31T18:49:41.738Z,15.42
2022-10-31T18:52:13.691Z,15.39
2022-10-31T18:54:47.844Z,15.36
2022-10-31T18:57:20.153Z,15.34
2022-10-31T18:59:52.318Z,15.31
2022-10-31T19:02:24.609Z,15.26
2022-10-31T19:04:57.095Z,15.25
2022-10-31T19:07:29.394Z,15.24
2022-10-31T19:10:01.847Z,15.11
2022-10-31T19:12:35.413Z,15.21
2022-10-31T19:15:09.359Z,15.22
2022-10-31T19:17:41.423Z,15.29
2022-10-31T19:20:15.314Z,15.30
2022-10-31T19:22:48.063Z,15.31
2022-10-31T19:25:21.027Z,15.34
2022-10-31T19:27:53.614Z,15.37
2022-10-31T19:30:26.247Z,15.38
2022-10-31T19:32:58.938Z,15.42
2022-10-31T19:35:31.305Z,15.46
2022-10-31T19:38:04.082Z,15.49
2022-10-31T19:40:37.470Z,15.50
2022-10-31T19:43:10.117Z,15.51
2022-10-31T19:45:42.421Z,15.53
2022-10-31T19:48:14.598Z,15.55
2022-10-31T19:50:46.990Z,15.56
2022-10-31T19:53:19.388Z,15.56
2022-10-31T19:55:51.767Z,15.60
2022-10-31T19:58:26.220Z,15.52
2022-10-31T20:03:31.626Z,15.61
2022-10-31T20:06:07.649Z,15.64
2022-10-31T20:08:39.822Z,15.64
2022-10-31T20:11:12.579Z,15.65
2022-10-31T20:13:46.281Z,15.68
2022-10-31T20:16:20.106Z,15.63
2022-10-31T20:18:52.296Z,15.63
2022-10-31T20:21:26.801Z,15.68
2022-10-31T20:24:00.317Z,15.69
2022-10-31T20:26:34.968Z,15.69
2022-10-31T20:29:07.307Z,15.70
2022-10-31T20:31:40.089Z,15.71
2022-10-31T20:34:12.297Z,15.72
2022-10-31T20:36:45.087Z,15.70
2022-10-31T20:40:05.196Z,15.67
2022-10-31T20:52:19.298Z,15.60
2022-10-31T20:54:58.575Z,15.66
2022-10-31T20:57:31.170Z,15.66
2022-10-31T21:00:03.875Z,15.62
2022-10-31T21:02:36.548Z,15.61
2022-10-31T21:05:10.150Z,15.60
2022-10-31T21:07:43.617Z,15.57
2022-10-31T21:10:16.396Z,15.55
2022-10-31T21:12:48.713Z,15.59
2022-10-31T21:15:20.943Z,15.57
2022-10-31T21:18:18.979Z,15.56
2022-10-31T21:21:19.500Z,15.57
2022-10-31T21:50:57.753Z,15.45
2022-10-31T21:54:19.948Z,15.42
2022-10-31T21:57:16.851Z,15.43
2022-10-31T22:00:13.809Z,15.40
2022-10-31T22:02:46.099Z,15.37
2022-10-31T22:05:18.544Z,15.40
2022-10-31T22:07:52.891Z,15.40
2022-10-31T22:10:26.272Z,15.40
2022-10-31T22:12:58.946Z,15.38
2022-10-31T22:15:31.249Z,15.40
2022-10-31T22:18:04.050Z,15.35
2022-10-31T22:20:36.376Z,15.37
2022-10-31T22:23:09.723Z,15.36
2022-10-31T22:25:42.056Z,15.38
2022-10-31T22:28:14.294Z,15.37
2022-10-31T22:30:46.542Z,15.37
2022-10-31T22:33:18.736Z,15.34
2022-10-31T22:35:50.908Z,15.37
2022-10-31T22:38:23.699Z,15.36
2022-10-31T22:41:00.393Z,15.37
2022-10-31T22:43:33.119Z,15.38
2022-10-31T22:46:08.288Z,15.38
2022-10-31T22:48:43.258Z,15.37
2022-10-31T22:51:17.366Z,15.27
2022-10-31T22:53:51.238Z,15.36
2022-10-31T22:56:25.221Z,15.38
2022-10-31T22:58:57.795Z,15.30
2022-10-31T23:01:32.307Z,15.29
2022-10-31T23:04:04.685Z,15.39
2022-10-31T23:06:36.869Z,15.39
2022-10-31T23:09:09.757Z,15.37
2022-10-31T23:11:42.593Z,15.38
2022-10-31T23:14:18.897Z,15.38
2022-10-31T23:16:54.064Z,15.38
2022-10-31T23:19:30.344Z,15.37
2022-10-31T23:22:05.173Z,15.37
2022-10-31T23:24:36.805Z,15.38
2022-10-31T23:27:14.533Z,15.37
2022-10-31T23:29:49.952Z,15.41
2022-10-31T23:32:25.872Z,15.43
2022-10-31T23:35:00.443Z,15.43
2022-10-31T23:37:32.968Z,15.41
2022-10-31T23:40:08.251Z,15.41
2022-10-31T23:42:40.797Z,15.40
2022-10-31T23:45:19.201Z,15.38
2022-10-31T23:47:51.642Z,15.39
2022-10-31T23:50:24.213Z,15.39
2022-10-31T23:52:56.343Z,15.40
2022-10-31T23:55:28.616Z,15.39
2022-10-31T23:58:02.072Z,15.36
